sensor_id;sensor_type;location;lat;lon;timestamp;temperature;humidity
9095;DHT22;4583;49.796;9.902;2023-04-15T00:06:37;8.80;91.20
9095;DHT22;4583;49.796;9.902;2023-04-15T00:16:40;8.70;91.30
9095;DHT22;4583;49.796;9.902;2023-04-15T00:26:42;8.60;91.40
9095;DHT22;4583;49.796;9.902;2023-04-15T00:36:43;8.60;91.60
9095;DHT22;4583;49.796;9.902;2023-04-15T00:46:45;8.60;91.80
9095;DHT22;4583;49.796;9.902;2023-04-15T00:56:47;8.60;91.70
9095;DHT22;4583;49.796;9.902;2023-04-15T01:06:49;8.40;92.20
9095;DHT22;4583;49.796;9.902;2023-04-15T01:16:52;8.50;92.60
9095;DHT22;4583;49.796;9.902;2023-04-15T01:26:53;8.40;92.90
9095;DHT22;4583;49.796;9.902;2023-04-15T01:36:55;8.50;93.00
9095;DHT22;4583;49.796;9.902;2023-04-15T01:46:57;8.40;93.20
9095;DHT22;4583;49.796;9.902;2023-04-15T01:56:59;8.30;93.70
9095;DHT22;4583;49.796;9.902;2023-04-15T02:07:00;8.30;93.90
9095;DHT22;4583;49.796;9.902;2023-04-15T02:17:02;8.30;94.20
9095;DHT22;4583;49.796;9.902;2023-04-15T02:27:08;8.40;94.50
9095;DHT22;4583;49.796;9.902;2023-04-15T02:37:11;8.30;94.50
9095;DHT22;4583;49.796;9.902;2023-04-15T02:47:13;8.20;94.90
9095;DHT22;4583;49.796;9.902;2023-04-15T02:57:16;8.10;95.20
9095;DHT22;4583;49.796;9.902;2023-04-15T03:07:18;8.30;95.40
9095;DHT22;4583;49.796;9.902;2023-04-15T03:17:19;8.30;95.20
9095;DHT22;4583;49.796;9.902;2023-04-15T03:27:21;8.30;95.40
9095;DHT22;4583;49.796;9.902;2023-04-15T03:37:23;8.10;95.70
9095;DHT22;4583;49.796;9.902;2023-04-15T03:47:25;8.10;96.00
9095;DHT22;4583;49.796;9.902;2023-04-15T03:57:26;8.00;96.00
9095;DHT22;4583;49.796;9.902;2023-04-15T04:07:28;8.10;96.00
9095;DHT22;4583;49.796;9.902;2023-04-15T04:17:30;8.00;95.80
9095;DHT22;4583;49.796;9.902;2023-04-15T04:27:32;7.80;96.10
9095;DHT22;4583;49.796;9.902;2023-04-15T04:47:36;7.70;96.40
9095;DHT22;4583;49.796;9.902;2023-04-15T04:57:37;7.70;96.50
9095;DHT22;4583;49.796;9.902;2023-04-15T05:07:42;7.70;96.70
9095;DHT22;4583;49.796;9.902;2023-04-15T05:17:44;7.80;96.50
9095;DHT22;4583;49.796;9.902;2023-04-15T05:27:46;8.00;96.60
9095;DHT22;4583;49.796;9.902;2023-04-15T05:37:47;7.90;96.80
9095;DHT22;4583;49.796;9.902;2023-04-15T05:47:50;8.20;96.50
9095;DHT22;4583;49.796;9.902;2023-04-15T05:57:54;8.40;96.50
9095;DHT22;4583;49.796;9.902;2023-04-15T06:07:56;8.70;96.30
9095;DHT22;4583;49.796;9.902;2023-04-15T06:17:58;8.80;96.00
9095;DHT22;4583;49.796;9.902;2023-04-15T06:27:59;8.90;95.80
9095;DHT22;4583;49.796;9.902;2023-04-15T06:38:01;8.90;95.70
9095;DHT22;4583;49.796;9.902;2023-04-15T06:48:03;9.20;95.60
9095;DHT22;4583;49.796;9.902;2023-04-15T06:58:05;9.60;95.40
9095;DHT22;4583;49.796;9.902;2023-04-15T07:08:07;9.80;95.40
9095;DHT22;4583;49.796;9.902;2023-04-15T07:18:09;10.30;94.30
9095;DHT22;4583;49.796;9.902;2023-04-15T07:38:13;11.00;93.60
9095;DHT22;4583;49.796;9.902;2023-04-15T07:48:14;11.50;92.90
9095;DHT22;4583;49.796;9.902;2023-04-15T07:58:17;11.50;91.90
9095;DHT22;4583;49.796;9.902;2023-04-15T08:08:18;11.70;91.10
9095;DHT22;4583;49.796;9.902;2023-04-15T08:18:20;11.70;91.30
9095;DHT22;4583;49.796;9.902;2023-04-15T08:28:22;11.80;88.80
9095;DHT22;4583;49.796;9.902;2023-04-15T08:38:23;11.70;86.80
9095;DHT22;4583;49.796;9.902;2023-04-15T08:48:27;12.00;84.90
9095;DHT22;4583;49.796;9.902;2023-04-15T08:58:29;12.00;85.40
9095;DHT22;4583;49.796;9.902;2023-04-15T09:08:32;12.20;80.50
9095;DHT22;4583;49.796;9.902;2023-04-15T09:18:38;12.30;79.80
9095;DHT22;4583;49.796;9.902;2023-04-15T09:28:42;12.40;79.10
9095;DHT22;4583;49.796;9.902;2023-04-15T09:38:58;12.50;79.90
9095;DHT22;4583;49.796;9.902;2023-04-15T09:49:07;12.40;79.60
9095;DHT22;4583;49.796;9.902;2023-04-15T09:59:09;12.40;80.30
9095;DHT22;4583;49.796;9.902;2023-04-15T10:09:11;12.50;79.80
9095;DHT22;4583;49.796;9.902;2023-04-15T10:19:14;12.20;80.90
9095;DHT22;4583;49.796;9.902;2023-04-15T10:29:19;12.20;81.40
9095;DHT22;4583;49.796;9.902;2023-04-15T10:49:42;11.80;79.90
9095;DHT22;4583;49.796;9.902;2023-04-15T11:09:59;11.70;80.30
9095;DHT22;4583;49.796;9.902;2023-04-15T11:20:02;11.50;80.80
9095;DHT22;4583;49.796;9.902;2023-04-15T11:30:37;11.30;83.90
9095;DHT22;4583;49.796;9.902;2023-04-15T11:40:40;11.20;86.40
9095;DHT22;4583;49.796;9.902;2023-04-15T11:50:55;11.30;88.10
9095;DHT22;4583;49.796;9.902;2023-04-15T12:00:59;11.40;88.40
9095;DHT22;4583;49.796;9.902;2023-04-15T12:11:01;11.70;89.80
9095;DHT22;4583;49.796;9.902;2023-04-15T12:21:09;11.20;90.80
9095;DHT22;4583;49.796;9.902;2023-04-15T12:31:11;11.20;91.30
9095;DHT22;4583;49.796;9.902;2023-04-15T12:41:15;11.30;91.60
9095;DHT22;4583;49.796;9.902;2023-04-15T12:51:16;11.20;91.90
9095;DHT22;4583;49.796;9.902;2023-04-15T13:01:18;11.10;92.70
9095;DHT22;4583;49.796;9.902;2023-04-15T13:11:21;11.10;93.30
9095;DHT22;4583;49.796;9.902;2023-04-15T13:21:23;11.20;94.10
9095;DHT22;4583;49.796;9.902;2023-04-15T13:31:24;11.50;94.20
9095;DHT22;4583;49.796;9.902;2023-04-15T13:41:26;11.60;94.50
9095;DHT22;4583;49.796;9.902;2023-04-15T13:51:28;11.40;94.40
9095;DHT22;4583;49.796;9.902;2023-04-15T14:01:30;10.90;94.70
9095;DHT22;4583;49.796;9.902;2023-04-15T14:11:32;10.60;95.40
9095;DHT22;4583;49.796;9.902;2023-04-15T14:21:35;10.60;96.00
9095;DHT22;4583;49.796;9.902;2023-04-15T14:31:37;10.70;96.10
9095;DHT22;4583;49.796;9.902;2023-04-15T14:41:41;14.20;98.10
9095;DHT22;4583;49.796;9.902;2023-04-15T14:51:43;10.50;96.40
9095;DHT22;4583;49.796;9.902;2023-04-15T15:01:45;10.50;96.70
9095;DHT22;4583;49.796;9.902;2023-04-15T15:11:47;10.60;97.00
9095;DHT22;4583;49.796;9.902;2023-04-15T15:21:48;10.70;97.30
9095;DHT22;4583;49.796;9.902;2023-04-15T15:31:50;10.80;97.50
9095;DHT22;4583;49.796;9.902;2023-04-15T15:41:52;10.60;97.80
9095;DHT22;4583;49.796;9.902;2023-04-15T15:51:54;10.50;98.40
9095;DHT22;4583;49.796;9.902;2023-04-15T16:01:56;10.40;98.70
9095;DHT22;4583;49.796;9.902;2023-04-15T16:11:58;10.30;99.00
9095;DHT22;4583;49.796;9.902;2023-04-15T16:22:00;10.30;99.30
9095;DHT22;4583;49.796;9.902;2023-04-15T16:32:02;10.30;99.60
9095;DHT22;4583;49.796;9.902;2023-04-15T16:42:03;10.20;99.80
9095;DHT22;4583;49.796;9.902;2023-04-15T16:52:06;10.20;99.90
9095;DHT22;4583;49.796;9.902;2023-04-15T17:02:10;10.20;99.90
9095;DHT22;4583;49.796;9.902;2023-04-15T17:12:13;10.20;99.90
9095;DHT22;4583;49.796;9.902;2023-04-15T17:22:15;10.10;99.90
9095;DHT22;4583;49.796;9.902;2023-04-15T17:32:17;10.10;99.90
9095;DHT22;4583;49.796;9.902;2023-04-15T17:42:19;10.00;99.90
9095;DHT22;4583;49.796;9.902;2023-04-15T17:52:21;10.00;99.90
9095;DHT22;4583;49.796;9.902;2023-04-15T18:02:23;10.00;99.90
9095;DHT22;4583;49.796;9.902;2023-04-15T18:22:27;10.10;99.90
9095;DHT22;4583;49.796;9.902;2023-04-15T18:32:29;10.10;99.90
9095;DHT22;4583;49.796;9.902;2023-04-15T18:42:33;10.10;99.90
9095;DHT22;4583;49.796;9.902;2023-04-15T18:52:35;10.00;99.90
9095;DHT22;4583;49.796;9.902;2023-04-15T19:22:41;10.00;99.90
9095;DHT22;4583;49.796;9.902;2023-04-15T19:32:43;10.00;99.90
9095;DHT22;4583;49.796;9.902;2023-04-15T19:42:45;9.90;99.90
9095;DHT22;4583;49.796;9.902;2023-04-15T19:52:47;9.90;99.90
9095;DHT22;4583;49.796;9.902;2023-04-15T20:02:48;9.90;99.90
9095;DHT22;4583;49.796;9.902;2023-04-15T20:12:50;9.80;99.90
9095;DHT22;4583;49.796;9.902;2023-04-15T20:22:54;9.70;99.90
9095;DHT22;4583;49.796;9.902;2023-04-15T20:32:55;9.80;99.90
9095;DHT22;4583;49.796;9.902;2023-04-15T20:42:57;9.90;99.90
9095;DHT22;4583;49.796;9.902;2023-04-15T20:52:59;10.00;99.90
9095;DHT22;4583;49.796;9.902;2023-04-15T21:13:03;9.90;99.90
9095;DHT22;4583;49.796;9.902;2023-04-15T21:23:06;10.00;99.90
9095;DHT22;4583;49.796;9.902;2023-04-15T21:33:08;10.10;99.90
9095;DHT22;4583;49.796;9.902;2023-04-15T21:43:10;10.00;99.90
9095;DHT22;4583;49.796;9.902;2023-04-15T21:53:11;10.00;99.90
9095;DHT22;4583;49.796;9.902;2023-04-15T22:03:14;10.10;99.90
9095;DHT22;4583;49.796;9.902;2023-04-15T22:13:16;10.10;99.90
9095;DHT22;4583;49.796;9.902;2023-04-15T22:23:18;10.10;99.90
9095;DHT22;4583;49.796;9.902;2023-04-15T22:33:23;10.20;99.90
9095;DHT22;4583;49.796;9.902;2023-04-15T22:43:24;10.20;99.90
9095;DHT22;4583;49.796;9.902;2023-04-15T22:53:27;10.10;99.90
9095;DHT22;4583;49.796;9.902;2023-04-15T23:03:29;10.20;99.90
9095;DHT22;4583;49.796;9.902;2023-04-15T23:13:31;10.10;99.90
9095;DHT22;4583;49.796;9.902;2023-04-15T23:23:33;10.30;99.90
9095;DHT22;4583;49.796;9.902;2023-04-15T23:33:35;10.30;99.90
9095;DHT22;4583;49.796;9.902;2023-04-15T23:43:38;10.30;99.90
9095;DHT22;4583;49.796;9.902;2023-04-15T23:53:40;10.40;99.90
